Holley, New York
Current Conditions -  °F | °C
As of 6:54 AM on Monday 24 Nov 2014 (Local Time) from KROC Reporting Station
Overcast Overcast  
Wind Chill: 60°   Ceiling: 9500
Heat Index: 60°   Visibility: 10mi
Dew Point: 50°   Wind: 20mph
Humidity: 69%   Direction: 190°S
Pressure: 29.33"   Gusts: 32mph
Location:  43.23°N, 78.03°W
Report Text: KROC 241154Z 19017G28KT 10SM FEW065 OVC095 16/10 A2933 RMK AO2 PK WND 20030/1138 SLP934 60006 70007 T01560100 10156 20111 56028
Loading
Personal Weather Stations






























Interactive Weather Map New forecast layout! Learn more

10-Day Weather Forecast

Advertisements
Track Severe Weather on mobile